Time;durP1;ratioP1;P1;durP2;ratioP2;P2;SDS_P1;SDS_P2;PMS_P1;PMS_P2;Temp;Humidity;BMP_temperature;BMP_pressure;BME280_temperature;BME280_humidity;BME280_pressure;Samples;Min_cycle;Max_cycle;Signal;HPM_P1;HPM_P2
2022/01/16 00:00:25;;;;;;;15.07;13.05;;;;;21.30;101167.00;;;;2088171;28;20208;-59
2022/01/16 00:04:09;;;;;;;13.52;12.13;;;;;21.30;101146.00;;;;2062706;28;20226;-59
2022/01/16 00:05:10;;;;;;;12.43;11.13;;;;;21.30;101127.00;;;;2077979;28;20325;-59
2022/01/16 00:06:12;;;;;;;12.87;11.57;;;;;21.30;101146.00;;;;2082148;28;20221;-59
2022/01/16 00:07:13;;;;;;;14.48;12.20;;;;;21.30;101149.00;;;;2085109;28;20501;-59
2022/01/16 00:08:13;;;;;;;14.40;12.57;;;;;21.30;101155.00;;;;2088245;28;20231;-58
2022/01/16 00:09:14;;;;;;;12.50;11.30;;;;;21.30;101161.00;;;;2088909;28;20209;-59
2022/01/16 00:10:16;;;;;;;14.20;12.40;;;;;21.30;101164.00;;;;2087993;28;20346;-59
2022/01/16 00:11:16;;;;;;;15.07;11.73;;;;;21.20;101158.00;;;;2084747;28;20220;-59
2022/01/16 00:12:18;;;;;;;12.70;11.40;;;;;21.30;101157.00;;;;2088856;28;20998;-59
2022/01/16 00:13:19;;;;;;;11.20;10.00;;;;;21.30;101157.00;;;;2088452;28;20228;-59
2022/01/16 00:14:19;;;;;;;11.93;10.73;;;;;21.20;101161.00;;;;2087167;28;20318;-59
2022/01/16 00:15:20;;;;;;;13.50;10.87;;;;;21.20;101158.00;;;;2084588;28;20647;-59
2022/01/16 00:16:21;;;;;;;11.85;10.65;;;;;21.30;101157.00;;;;2088415;28;20227;-59
2022/01/16 00:17:23;;;;;;;12.33;10.67;;;;;21.20;101155.00;;;;2084991;28;20213;-58
2022/01/16 00:18:29;;;;;;;12.75;11.35;;;;;21.20;101146.00;;;;2087800;28;20266;-59
2022/01/16 00:19:30;;;;;;;12.10;10.75;;;;;21.20;101151.00;;;;2088463;28;20239;-59
2022/01/16 00:20:30;;;;;;;13.10;10.90;;;;;21.20;101150.00;;;;2088327;28;20209;-59
2022/01/16 00:21:33;;;;;;;12.13;10.87;;;;;21.20;101150.00;;;;2088425;28;20751;-59
2022/01/16 00:22:38;;;;;;;10.68;9.68;;;;;21.20;101154.00;;;;2084544;28;20209;-58
2022/01/16 00:23:38;;;;;;;11.68;10.57;;;;;21.20;101144.00;;;;2088248;28;20212;-59
2022/01/16 00:24:38;;;;;;;10.93;9.83;;;;;21.20;101153.00;;;;2088216;28;20449;-59
2022/01/16 00:25:39;;;;;;;12.10;10.40;;;;;21.20;101147.00;;;;2088456;28;20213;-59
2022/01/16 00:26:40;;;;;;;11.10;9.90;;;;;21.20;101149.00;;;;2088434;28;21060;-59
2022/01/16 00:27:41;;;;;;;10.57;9.57;;;;;21.20;101146.00;;;;2088434;28;20637;-59
2022/01/16 00:28:41;;;;;;;11.20;10.10;;;;;21.20;101141.00;;;;2088313;28;20286;-59
2022/01/16 00:29:41;;;;;;;9.87;8.90;;;;;21.10;101138.00;;;;2088167;28;20240;-59
2022/01/16 00:30:42;;;;;;;11.17;10.03;;;;;21.20;101139.00;;;;2087714;28;20584;-59
2022/01/16 00:31:42;;;;;;;10.47;9.37;;;;;21.20;101127.00;;;;2088498;28;20588;-59
2022/01/16 00:32:43;;;;;;;10.17;9.17;;;;;21.20;101126.00;;;;2085812;28;20562;-58
2022/01/16 00:33:44;;;;;;;10.77;9.67;;;;;21.20;101114.00;;;;2088057;28;20217;-59
2022/01/16 00:34:45;;;;;;;10.70;9.60;;;;;21.10;101118.00;;;;2088351;28;20295;-58
2022/01/16 00:35:45;;;;;;;9.90;9.00;;;;;21.10;101126.00;;;;2088230;28;20623;-58
2022/01/16 00:36:46;;;;;;;10.63;8.83;;;;;21.10;101129.00;;;;2088271;28;20219;-58
2022/01/16 00:37:48;;;;;;;10.23;9.10;;;;;21.10;101125.00;;;;2088077;28;20213;-59
2022/01/16 00:38:49;;;;;;;10.35;9.35;;;;;21.10;101130.00;;;;2088130;28;20292;-59
2022/01/16 00:39:49;;;;;;;9.80;8.87;;;;;21.10;101141.00;;;;2088258;28;20683;-58
2022/01/16 00:40:49;;;;;;;9.17;8.37;;;;;21.10;101140.00;;;;2087201;28;20909;-58
2022/01/16 00:41:50;;;;;;;9.80;8.80;;;;;21.10;101138.00;;;;2075613;28;21192;-59
2022/01/16 00:42:50;;;;;;;9.03;8.17;;;;;21.10;101150.00;;;;2076509;28;20593;-58
2022/01/16 00:43:51;;;;;;;10.13;8.33;;;;;21.10;101145.00;;;;2091274;28;20580;-59
2022/01/16 00:44:51;;;;;;;9.63;8.63;;;;;21.10;101134.00;;;;2090701;28;20224;-58
2022/01/16 00:45:52;;;;;;;9.60;8.60;;;;;21.10;101134.00;;;;2088651;28;20323;-59
2022/01/16 00:46:52;;;;;;;8.87;8.07;;;;;21.10;101129.00;;;;2088471;28;20298;-59
2022/01/16 00:47:52;;;;;;;9.80;8.90;;;;;21.10;101118.00;;;;2085192;28;20209;-59
2022/01/16 00:48:53;;;;;;;9.57;8.60;;;;;21.10;101130.00;;;;2087416;28;20583;-59
2022/01/16 00:49:53;;;;;;;9.57;8.57;;;;;21.10;101136.00;;;;2088038;28;20611;-58
2022/01/16 00:50:53;;;;;;;9.20;8.40;;;;;21.10;101140.00;;;;2087921;28;20208;-59
2022/01/16 00:51:53;;;;;;;9.00;8.10;;;;;21.10;101147.00;;;;2088695;28;20240;-59
2022/01/16 00:52:54;;;;;;;8.83;8.03;;;;;21.10;101141.00;;;;2086560;28;20255;-59
2022/01/16 00:53:54;;;;;;;8.33;7.53;;;;;21.10;101140.00;;;;2088418;28;20212;-58
2022/01/16 00:54:58;;;;;;;8.87;7.97;;;;;21.10;101137.00;;;;2088391;28;20219;-58
2022/01/16 00:55:58;;;;;;;8.75;7.85;;;;;21.10;101145.00;;;;2088279;28;20301;-58
2022/01/16 00:56:59;;;;;;;8.30;7.50;;;;;21.00;101149.00;;;;2088341;28;20224;-58
2022/01/16 00:57:59;;;;;;;8.40;7.60;;;;;21.00;101150.00;;;;2087575;28;20241;-58
2022/01/16 00:59:00;;;;;;;8.77;7.97;;;;;21.00;101145.00;;;;2088060;28;20212;-58
2022/01/16 01:00:00;;;;;;;9.10;8.20;;;;;21.10;101147.00;;;;2088059;28;20236;-59
2022/01/16 01:01:00;;;;;;;8.60;7.50;;;;;21.10;101129.00;;;;2087023;28;20283;-59
2022/01/16 01:02:01;;;;;;;7.97;7.27;;;;;21.00;101133.00;;;;2087445;28;20778;-58
2022/01/16 01:03:01;;;;;;;8.23;7.43;;;;;21.00;101123.00;;;;2085400;28;20220;-58
2022/01/16 01:04:02;;;;;;;9.20;8.23;;;;;21.00;101115.00;;;;2085578;28;20704;-58
2022/01/16 01:05:02;;;;;;;8.83;8.00;;;;;21.00;101100.00;;;;2087312;28;20217;-58
2022/01/16 01:06:02;;;;;;;8.63;7.83;;;;;21.00;101107.00;;;;2088082;28;20217;-58
2022/01/16 01:07:03;;;;;;;8.03;7.33;;;;;21.00;101131.00;;;;2088000;28;20221;-58
2022/01/16 01:08:04;;;;;;;8.67;7.20;;;;;21.00;101143.00;;;;2085640;28;20223;-58
2022/01/16 01:09:05;;;;;;;7.38;6.68;;;;;21.00;101153.00;;;;2088023;28;20213;-58
2022/01/16 01:10:06;;;;;;;8.17;7.40;;;;;21.00;101140.00;;;;2088151;28;20260;-59
2022/01/16 01:11:12;;;;;;;8.55;7.75;;;;;21.00;101147.00;;;;2087736;28;20220;-59
2022/01/16 01:12:23;;;;;;;6.65;6.05;;;;;21.00;101159.00;;;;2087772;28;20580;-60
2022/01/16 01:14:39;;;;;;;8.05;7.30;;;;;21.00;101147.00;;;;2087185;28;20291;-60
2022/01/16 01:15:46;;;;;;;8.43;7.63;;;;;21.00;101144.00;;;;2087138;28;20295;-60
2022/01/16 01:17:50;;;;;;;7.93;7.22;;;;;21.00;101175.00;;;;2087417;28;20223;-60
2022/01/16 01:18:50;;;;;;;7.50;6.80;;;;;21.00;101180.00;;;;2087894;28;20295;-60
2022/01/16 01:19:51;;;;;;;6.90;6.30;;;;;21.00;101181.00;;;;2087793;28;20212;-60
2022/01/16 01:20:52;;;;;;;7.70;7.00;;;;;21.00;101173.00;;;;2086717;28;20225;-60
2022/01/16 01:21:52;;;;;;;8.45;7.65;;;;;21.00;101178.00;;;;2087114;28;20336;-60
2022/01/16 01:22:52;;;;;;;7.00;6.40;;;;;21.00;101177.00;;;;2087246;28;20741;-60
2022/01/16 01:23:54;;;;;;;7.97;7.20;;;;;21.00;101181.00;;;;2087616;28;20696;-60
2022/01/16 01:24:54;;;;;;;7.45;6.78;;;;;21.00;101178.00;;;;2088337;28;20746;-60
2022/01/16 01:25:55;;;;;;;7.67;6.97;;;;;20.90;101183.00;;;;2088093;28;20225;-60
2022/01/16 01:27:03;;;;;;;8.30;7.50;;;;;20.90;101194.00;;;;2088144;28;20231;-59
2022/01/16 01:28:04;;;;;;;8.68;7.55;;;;;20.90;101201.00;;;;2084820;28;20226;-60
2022/01/16 01:29:05;;;;;;;7.70;6.40;;;;;20.90;101203.00;;;;2088267;28;20205;-60
2022/01/16 01:30:07;;;;;;;7.90;7.20;;;;;20.90;101196.00;;;;2087068;28;20505;-60
2022/01/16 01:31:07;;;;;;;7.28;6.68;;;;;20.90;101196.00;;;;2086593;28;20263;-60
2022/01/16 01:32:07;;;;;;;7.37;6.77;;;;;20.90;101200.00;;;;2087766;28;20618;-60
2022/01/16 01:33:08;;;;;;;7.00;6.40;;;;;20.90;101212.00;;;;2077855;28;20223;-60
2022/01/16 01:34:08;;;;;;;7.30;6.53;;;;;20.90;101188.00;;;;2095474;28;20208;-60
2022/01/16 01:35:10;;;;;;;7.63;6.93;;;;;20.90;101182.00;;;;2087382;28;20205;-60
2022/01/16 01:36:10;;;;;;;9.57;7.68;;;;;20.90;101152.00;;;;2087170;28;20587;-60
2022/01/16 01:37:11;;;;;;;7.73;6.00;;;;;20.90;101132.00;;;;2086879;28;20259;-60
2022/01/16 01:38:11;;;;;;;6.83;6.23;;;;;20.80;101111.00;;;;2086933;28;20217;-60
2022/01/16 01:39:12;;;;;;;7.50;6.80;;;;;20.80;101106.00;;;;2087107;28;20213;-60
2022/01/16 01:40:23;;;;;;;7.63;6.87;;;;;20.80;101128.00;;;;2087653;28;20258;-60
2022/01/16 01:41:25;;;;;;;7.55;6.85;;;;;20.90;101106.00;;;;2083443;28;20364;-60
2022/01/16 01:42:32;;;;;;;7.18;6.57;;;;;20.80;101103.00;;;;2086658;28;20212;-60
2022/01/16 01:51:14;;;;;;;7.45;6.75;;;;;20.80;101138.00;;;;2087461;28;20209;-60
2022/01/16 01:52:16;;;;;;;7.63;6.83;;;;;20.80;101138.00;;;;2086919;28;20703;-60
2022/01/16 01:53:16;;;;;;;6.60;6.00;;;;;20.80;101146.00;;;;2078959;28;20652;-60
2022/01/16 01:54:17;;;;;;;8.23;6.53;;;;;20.80;101152.00;;;;2086960;28;20216;-60
2022/01/16 01:55:17;;;;;;;7.10;6.50;;;;;20.80;101156.00;;;;2087560;28;20217;-60
2022/01/16 01:56:18;;;;;;;6.80;6.17;;;;;20.80;101158.00;;;;2087720;28;20213;-60
2022/01/16 01:57:18;;;;;;;7.40;6.70;;;;;20.80;101164.00;;;;2078546;28;20225;-60
2022/01/16 01:58:20;;;;;;;7.57;6.87;;;;;20.80;101170.00;;;;2087464;28;20304;-60
2022/01/16 01:59:20;;;;;;;7.55;6.75;;;;;20.80;101179.00;;;;2087216;28;20221;-60
2022/01/16 02:00:21;;;;;;;6.97;6.37;;;;;20.70;101171.00;;;;2086814;28;20228;-60
2022/01/16 02:01:21;;;;;;;7.70;7.00;;;;;20.70;101168.00;;;;2087534;28;20223;-60
2022/01/16 02:02:24;;;;;;;7.23;6.63;;;;;20.80;101168.00;;;;2086783;28;20316;-60
2022/01/16 02:04:40;;;;;;;6.70;6.13;;;;;20.70;101177.00;;;;2087536;28;20343;-60
2022/01/16 02:05:42;;;;;;;7.50;6.83;;;;;20.70;101170.00;;;;2087725;28;20208;-60
2022/01/16 02:06:42;;;;;;;6.97;6.40;;;;;20.70;101177.00;;;;2087531;28;20217;-60
2022/01/16 02:07:42;;;;;;;7.00;6.40;;;;;20.70;101184.00;;;;2087045;28;20644;-60
2022/01/16 02:08:43;;;;;;;6.90;6.30;;;;;20.70;101190.00;;;;2086918;28;20621;-60
2022/01/16 02:09:44;;;;;;;6.90;6.30;;;;;20.70;101183.00;;;;2087539;28;20583;-60
2022/01/16 02:10:44;;;;;;;6.80;6.20;;;;;20.70;101175.00;;;;2087277;28;20454;-60
2022/01/16 02:11:44;;;;;;;7.07;6.40;;;;;20.70;101175.00;;;;2087524;28;20212;-60
2022/01/16 02:12:46;;;;;;;7.33;6.63;;;;;20.70;101178.00;;;;2086927;28;20251;-60
2022/01/16 02:13:54;;;;;;;6.93;6.32;;;;;20.70;101168.00;;;;2078800;28;20205;-60
2022/01/16 02:15:04;;;;;;;7.10;6.40;;;;;20.70;101184.00;;;;2087129;28;20221;-60
2022/01/16 02:31:23;;;;;;;7.33;6.73;;;;;20.60;101187.00;;;;2087071;28;20213;-60
2022/01/16 02:34:44;;;;;;;7.93;7.25;;;;;20.60;101195.00;;;;2089870;28;20305;-60
2022/01/16 02:35:48;;;;;;;6.70;6.10;;;;;20.60;101187.00;;;;2090149;28;20212;-60
2022/01/16 02:36:51;;;;;;;7.15;6.55;;;;;20.60;101189.00;;;;2086956;28;20204;-60
2022/01/16 02:37:51;;;;;;;7.95;7.25;;;;;20.60;101185.00;;;;2090571;28;20674;-60
2022/01/16 02:38:55;;;;;;;7.40;6.70;;;;;20.60;101176.00;;;;2090583;28;20228;-60
2022/01/16 02:40:02;;;;;;;8.60;7.80;;;;;20.60;101188.00;;;;2090077;28;20712;-60
2022/01/16 02:41:04;;;;;;;7.07;6.40;;;;;20.60;101189.00;;;;2089922;28;20255;-60
2022/01/16 02:42:06;;;;;;;8.00;7.30;;;;;20.60;101178.00;;;;2090679;28;20613;-60
2022/01/16 02:43:06;;;;;;;8.15;7.35;;;;;20.50;101183.00;;;;2087170;28;20583;-60
2022/01/16 02:44:22;;;;;;;7.83;7.20;;;;;20.60;101177.00;;;;2090618;28;20219;-63
2022/01/16 02:45:31;;;;;;;8.18;7.47;;;;;20.50;101179.00;;;;2086329;28;20211;-60
2022/01/16 02:47:32;;;;;;;8.73;7.93;;;;;20.60;101166.00;;;;2090638;28;20668;-61
2022/01/16 02:48:32;;;;;;;7.70;7.00;;;;;20.60;101164.00;;;;2090556;28;20223;-60
2022/01/16 02:49:33;;;;;;;7.53;6.93;;;;;20.60;101155.00;;;;2090615;28;20212;-60
2022/01/16 02:50:34;;;;;;;8.27;7.47;;;;;20.50;101152.00;;;;2090286;28;20224;-60
2022/01/16 02:51:34;;;;;;;8.73;8.00;;;;;20.50;101152.00;;;;2090544;28;20216;-60
2022/01/16 02:52:35;;;;;;;7.93;7.23;;;;;20.50;101156.00;;;;2090574;28;20212;-60
2022/01/16 02:53:35;;;;;;;9.00;8.20;;;;;20.50;101155.00;;;;2090171;28;20212;-60
2022/01/16 02:54:38;;;;;;;8.23;7.53;;;;;20.50;101156.00;;;;2090169;28;20299;-60
2022/01/16 02:55:43;;;;;;;7.60;6.90;;;;;20.50;101162.00;;;;2089886;28;20313;-60
2022/01/16 02:56:45;;;;;;;8.52;7.82;;;;;20.50;101153.00;;;;2089882;28;20232;-60
2022/01/16 02:57:45;;;;;;;8.80;8.00;;;;;20.50;101153.00;;;;2090609;28;20217;-60
2022/01/16 02:58:46;;;;;;;8.77;7.87;;;;;20.50;101138.00;;;;2090746;28;20292;-60
2022/01/16 02:59:49;;;;;;;8.40;7.70;;;;;20.50;101133.00;;;;2090441;28;20232;-60
2022/01/16 03:00:49;;;;;;;8.98;8.10;;;;;20.50;101139.00;;;;2090275;28;20447;-60
2022/01/16 03:01:50;;;;;;;9.00;8.20;;;;;20.50;101116.00;;;;2090612;28;20620;-59
2022/01/16 03:02:50;;;;;;;8.30;7.60;;;;;20.50;101123.00;;;;2089879;28;20231;-60
2022/01/16 03:03:51;;;;;;;9.07;8.27;;;;;20.50;101111.00;;;;2089831;28;20258;-60
2022/01/16 03:04:51;;;;;;;8.60;7.80;;;;;20.50;101126.00;;;;2089098;28;20350;-60
2022/01/16 03:05:51;;;;;;;8.67;7.97;;;;;20.50;101114.00;;;;2089609;28;20224;-60
2022/01/16 03:06:52;;;;;;;8.40;7.70;;;;;20.50;101114.00;;;;2089613;28;20327;-60
2022/01/16 03:07:52;;;;;;;9.27;8.43;;;;;20.50;101108.00;;;;2089828;28;20219;-60
2022/01/16 03:08:52;;;;;;;9.77;8.90;;;;;20.50;101104.00;;;;2090519;28;20205;-60
2022/01/16 03:12:34;;;;;;;10.50;9.50;;;;;20.50;101115.00;;;;2090266;28;20217;-60
2022/01/16 03:13:34;;;;;;;9.40;8.40;;;;;20.40;101116.00;;;;2090578;28;20228;-60
2022/01/16 03:14:35;;;;;;;9.43;8.63;;;;;20.40;101106.00;;;;2089765;28;20279;-60
2022/01/16 03:15:38;;;;;;;9.70;8.80;;;;;20.40;101104.00;;;;2089072;28;20228;-60
2022/01/16 03:16:42;;;;;;;9.73;8.82;;;;;20.40;101106.00;;;;2090478;28;20698;-60
2022/01/16 03:21:57;;;;;;;10.15;9.25;;;;;20.40;101102.00;;;;2085867;28;20217;-60
2022/01/16 03:22:58;;;;;;;10.32;9.32;;;;;20.40;101109.00;;;;2088094;28;20232;-60
2022/01/16 03:23:58;;;;;;;10.50;9.50;;;;;20.40;101114.00;;;;2090052;28;20234;-60
2022/01/16 03:24:59;;;;;;;11.00;10.00;;;;;20.40;101114.00;;;;2085797;28;20557;-60
2022/01/16 03:25:59;;;;;;;10.90;10.00;;;;;20.40;101124.00;;;;2089199;28;20244;-60
2022/01/16 03:27:02;;;;;;;10.60;9.60;;;;;20.40;101115.00;;;;2088653;28;20248;-59
2022/01/16 03:28:02;;;;;;;10.60;9.70;;;;;20.40;101117.00;;;;2089925;28;20757;-60
2022/01/16 03:29:02;;;;;;;11.57;10.47;;;;;20.40;101113.00;;;;2086510;28;20266;-60
2022/01/16 03:30:03;;;;;;;10.57;9.57;;;;;20.40;101116.00;;;;2090027;28;20239;-60
2022/01/16 03:31:04;;;;;;;11.83;10.63;;;;;20.40;101107.00;;;;2089791;28;20209;-60
2022/01/16 03:32:06;;;;;;;10.80;9.90;;;;;20.40;101106.00;;;;2089714;28;20446;-60
2022/01/16 03:33:06;;;;;;;12.35;11.25;;;;;20.40;101099.00;;;;2085756;28;20209;-60
2022/01/16 03:34:06;;;;;;;11.83;10.73;;;;;20.40;101092.00;;;;2089402;28;20296;-60
2022/01/16 03:35:07;;;;;;;12.10;11.00;;;;;20.40;101086.00;;;;2090265;28;20212;-60
2022/01/16 03:36:07;;;;;;;11.00;10.10;;;;;20.40;101092.00;;;;2090386;28;20213;-60
2022/01/16 03:37:08;;;;;;;11.90;10.80;;;;;20.40;101082.00;;;;2090401;28;20212;-60
2022/01/16 03:38:08;;;;;;;12.13;11.03;;;;;20.40;101087.00;;;;2090377;28;21131;-60
2022/01/16 03:39:08;;;;;;;12.73;10.90;;;;;20.30;101088.00;;;;2090353;28;20648;-60
2022/01/16 03:40:11;;;;;;;11.53;10.47;;;;;20.40;101088.00;;;;2088143;28;20652;-60
2022/01/16 03:41:11;;;;;;;12.23;10.95;;;;;20.40;101090.00;;;;2089667;28;20222;-60
2022/01/16 03:42:12;;;;;;;12.00;10.90;;;;;20.40;101087.00;;;;2090511;28;20217;-60
2022/01/16 03:43:14;;;;;;;11.83;10.63;;;;;20.30;101088.00;;;;2090555;28;20216;-60
2022/01/16 03:44:14;;;;;;;10.65;9.75;;;;;20.40;101092.00;;;;2090432;28;20212;-60
2022/01/16 03:45:14;;;;;;;12.20;10.87;;;;;20.40;101090.00;;;;2089465;28;20209;-60
2022/01/16 03:46:15;;;;;;;12.60;11.33;;;;;20.30;101083.00;;;;2089097;28;20215;-60
2022/01/16 03:47:15;;;;;;;12.17;10.97;;;;;20.30;101086.00;;;;2089073;28;20213;-60
2022/01/16 03:48:16;;;;;;;12.87;11.67;;;;;20.40;101093.00;;;;2088984;28;20574;-60
2022/01/16 03:49:21;;;;;;;12.50;11.30;;;;;20.30;101094.00;;;;2088949;28;20707;-60
2022/01/16 03:50:21;;;;;;;13.48;12.07;;;;;20.30;101101.00;;;;2078139;28;20257;-60
2022/01/16 03:51:21;;;;;;;11.83;10.60;;;;;20.30;101099.00;;;;2088392;28;20917;-59
2022/01/16 03:52:22;;;;;;;12.73;11.53;;;;;20.30;101091.00;;;;2089084;28;20727;-60
2022/01/16 03:53:22;;;;;;;12.00;10.90;;;;;20.30;101101.00;;;;2089182;28;20212;-60
2022/01/16 03:54:26;;;;;;;12.83;11.53;;;;;20.30;101101.00;;;;2089012;28;20208;-60
2022/01/16 03:55:27;;;;;;;12.30;11.20;;;;;20.30;101088.00;;;;2088970;28;20688;-60
2022/01/16 03:56:27;;;;;;;12.40;11.27;;;;;20.30;101095.00;;;;2088801;28;20209;-60
2022/01/16 03:57:27;;;;;;;12.00;11.00;;;;;20.30;101103.00;;;;2079900;28;20268;-60
2022/01/16 03:58:28;;;;;;;12.30;11.10;;;;;20.30;101095.00;;;;2080124;28;20608;-59
2022/01/16 03:59:28;;;;;;;13.53;12.20;;;;;20.30;101105.00;;;;2088787;28;20923;-60
2022/01/16 04:00:28;;;;;;;12.67;11.47;;;;;20.30;101107.00;;;;2088658;28;20688;-60
2022/01/16 04:01:29;;;;;;;12.20;11.10;;;;;20.30;101086.00;;;;2088967;28;20201;-60
2022/01/16 04:02:29;;;;;;;13.50;12.20;;;;;20.30;101091.00;;;;2088259;28;20205;-60
2022/01/16 04:03:29;;;;;;;13.03;11.87;;;;;20.30;101107.00;;;;2088407;28;20209;-60
2022/01/16 04:04:30;;;;;;;13.30;12.10;;;;;20.30;101105.00;;;;2088919;28;20220;-60
2022/01/16 04:05:30;;;;;;;13.00;11.80;;;;;20.30;101105.00;;;;2088988;28;20239;-60
2022/01/16 04:06:31;;;;;;;14.27;12.87;;;;;20.30;101108.00;;;;2088798;28;20866;-60
2022/01/16 04:07:35;;;;;;;14.17;12.50;;;;;20.30;101100.00;;;;2088849;28;20738;-60
2022/01/16 04:08:35;;;;;;;13.50;12.20;;;;;20.30;101111.00;;;;2088888;28;20216;-60
2022/01/16 04:09:37;;;;;;;13.60;12.40;;;;;20.30;101108.00;;;;2089001;28;20692;-60
2022/01/16 04:10:37;;;;;;;13.98;12.68;;;;;20.30;101109.00;;;;2086657;28;20815;-60
2022/01/16 04:11:44;;;;;;;13.60;12.40;;;;;20.30;101111.00;;;;2086209;28;20247;-60
2022/01/16 04:12:46;;;;;;;13.82;12.52;;;;;20.30;101113.00;;;;2085344;28;20240;-59
2022/01/16 04:13:52;;;;;;;13.90;12.55;;;;;20.30;101112.00;;;;2088971;28;20216;-60
2022/01/16 04:15:53;;;;;;;14.80;13.40;;;;;20.30;101104.00;;;;2088915;28;20247;-60
2022/01/16 04:16:53;;;;;;;16.10;14.50;;;;;20.30;101099.00;;;;2088579;28;20232;-59
2022/01/16 04:17:53;;;;;;;14.47;13.10;;;;;20.30;101104.00;;;;2088920;28;20684;-60
2022/01/16 04:18:53;;;;;;;14.37;13.07;;;;;20.30;101104.00;;;;2088979;28;20635;-60
2022/01/16 04:19:54;;;;;;;14.60;13.20;;;;;20.20;101102.00;;;;2088779;28;20699;-60
2022/01/16 04:20:54;;;;;;;14.47;13.07;;;;;20.20;101108.00;;;;2088319;28;20219;-60
2022/01/16 04:21:55;;;;;;;14.90;13.47;;;;;20.30;101109.00;;;;2088829;28;20576;-60
2022/01/16 04:22:55;;;;;;;14.87;13.47;;;;;20.30;101109.00;;;;2088803;28;20219;-60
2022/01/16 04:23:55;;;;;;;14.87;13.37;;;;;20.30;101110.00;;;;2088610;28;20216;-60
2022/01/16 04:24:56;;;;;;;16.07;14.37;;;;;20.20;101124.00;;;;2088732;28;20240;-60
2022/01/16 04:25:56;;;;;;;16.33;14.73;;;;;20.20;101128.00;;;;2088637;28;20237;-60
2022/01/16 04:26:56;;;;;;;16.73;14.40;;;;;20.20;101127.00;;;;2088727;28;20224;-60
2022/01/16 04:27:57;;;;;;;15.83;14.33;;;;;20.20;101132.00;;;;2088649;28;20213;-60
2022/01/16 04:28:57;;;;;;;15.67;14.07;;;;;20.20;101135.00;;;;2085199;28;20299;-60
2022/01/16 04:29:57;;;;;;;14.90;13.50;;;;;20.20;101135.00;;;;2088755;28;20211;-60
2022/01/16 04:30:58;;;;;;;14.87;13.47;;;;;20.20;101133.00;;;;2088430;28;20209;-60
2022/01/16 04:31:58;;;;;;;15.77;14.27;;;;;20.20;101132.00;;;;2088823;28;20252;-60
2022/01/16 04:32:58;;;;;;;16.67;15.03;;;;;20.20;101132.00;;;;2088817;28;20235;-60
2022/01/16 04:33:59;;;;;;;16.17;14.70;;;;;20.20;101133.00;;;;2088566;28;20217;-60
2022/01/16 04:34:59;;;;;;;16.27;14.67;;;;;20.20;101134.00;;;;2088669;28;20352;-59
2022/01/16 04:35:59;;;;;;;15.43;13.93;;;;;20.20;101136.00;;;;2088717;28;20213;-60
2022/01/16 04:36:59;;;;;;;15.70;14.20;;;;;20.20;101131.00;;;;2088599;28;20239;-60
2022/01/16 04:38:00;;;;;;;16.33;14.80;;;;;20.20;101121.00;;;;2088932;28;20220;-60
2022/01/16 04:39:00;;;;;;;16.67;15.07;;;;;20.20;101126.00;;;;2088475;28;20217;-60
2022/01/16 04:40:03;;;;;;;16.13;14.43;;;;;20.20;101130.00;;;;2088879;28;20240;-60
2022/01/16 04:43:58;;;;;;;19.33;15.13;;;;;20.20;101134.00;;;;2062276;28;20223;-60
2022/01/16 04:44:59;;;;;;;16.30;14.73;;;;;20.20;101134.00;;;;2062387;28;20255;-60
2022/01/16 04:45:59;;;;;;;15.37;13.87;;;;;20.20;101132.00;;;;2064675;28;20227;-60
2022/01/16 04:46:59;;;;;;;16.40;14.80;;;;;20.20;101138.00;;;;2088250;28;21016;-60
2022/01/16 04:48:00;;;;;;;16.40;14.80;;;;;20.20;101136.00;;;;2088166;28;20220;-60
2022/01/16 04:49:01;;;;;;;15.93;14.40;;;;;20.20;101131.00;;;;2088421;28;20221;-60
2022/01/16 04:50:01;;;;;;;16.17;14.57;;;;;20.20;101127.00;;;;2088216;28;20677;-60
2022/01/16 04:51:01;;;;;;;15.57;14.17;;;;;20.10;101134.00;;;;2088036;28;20540;-60
2022/01/16 04:52:02;;;;;;;16.83;15.10;;;;;20.10;101130.00;;;;2088681;28;20216;-60
2022/01/16 04:53:02;;;;;;;16.00;14.50;;;;;20.10;101136.00;;;;2088571;28;20212;-60
2022/01/16 04:54:03;;;;;;;15.90;14.43;;;;;20.10;101132.00;;;;2088738;28;20209;-60
2022/01/16 04:55:03;;;;;;;16.63;14.83;;;;;20.10;101133.00;;;;2088517;28;20213;-60
2022/01/16 04:56:04;;;;;;;15.40;13.80;;;;;20.10;101143.00;;;;2088506;28;20209;-60
2022/01/16 04:57:04;;;;;;;16.27;14.77;;;;;20.10;101132.00;;;;2087895;28;20225;-60
2022/01/16 04:58:05;;;;;;;17.17;15.60;;;;;20.10;101142.00;;;;2087795;28;20208;-60
2022/01/16 04:59:05;;;;;;;16.93;15.13;;;;;20.10;101138.00;;;;2087732;28;20716;-60
2022/01/16 05:00:11;;;;;;;16.40;14.60;;;;;20.10;101127.00;;;;2088475;28;20715;-60
2022/01/16 05:01:11;;;;;;;16.00;14.45;;;;;20.10;101133.00;;;;2087560;28;20244;-60
2022/01/16 05:02:11;;;;;;;16.60;15.00;;;;;20.10;101136.00;;;;2088026;28;20213;-60
2022/01/16 05:03:12;;;;;;;17.40;15.50;;;;;20.10;101137.00;;;;2088388;28;20209;-60
2022/01/16 05:04:12;;;;;;;16.43;14.73;;;;;20.10;101128.00;;;;2088509;28;20204;-60
2022/01/16 05:05:12;;;;;;;16.37;14.67;;;;;20.10;101131.00;;;;2088008;28;20670;-59
2022/01/16 05:06:13;;;;;;;17.20;15.53;;;;;20.10;101129.00;;;;2088524;28;20579;-60
2022/01/16 05:07:13;;;;;;;17.27;15.30;;;;;20.10;101132.00;;;;2088399;28;20209;-60
2022/01/16 05:08:14;;;;;;;17.07;15.30;;;;;20.10;101126.00;;;;2088565;28;20215;-60
2022/01/16 05:09:14;;;;;;;17.80;15.63;;;;;20.10;101131.00;;;;2088581;28;20208;-60
2022/01/16 05:10:14;;;;;;;17.13;15.53;;;;;20.10;101119.00;;;;2088327;28;20221;-60
2022/01/16 05:11:20;;;;;;;17.53;15.73;;;;;20.10;101117.00;;;;2088319;28;20247;-60
2022/01/16 05:12:26;;;;;;;17.42;15.63;;;;;20.00;101108.00;;;;2088472;28;20217;-60
2022/01/16 05:17:06;;;;;;;18.40;16.52;;;;;20.10;101103.00;;;;2087168;28;20220;-60
2022/01/16 05:18:07;;;;;;;18.57;16.70;;;;;20.00;101113.00;;;;2088443;28;20213;-60
2022/01/16 05:19:12;;;;;;;17.40;15.60;;;;;20.00;101110.00;;;;2088532;28;20239;-60
2022/01/16 05:20:13;;;;;;;18.25;16.45;;;;;20.10;101114.00;;;;2088392;28;20220;-60
2022/01/16 05:21:13;;;;;;;18.23;16.33;;;;;19.80;101111.00;;;;2083648;28;20216;-60
2022/01/16 05:22:14;;;;;;;18.03;16.23;;;;;20.00;101105.00;;;;2096004;28;20215;-60
2022/01/16 05:23:14;;;;;;;18.50;16.00;;;;;20.00;101113.00;;;;2087909;28;20353;-60
2022/01/16 05:24:14;;;;;;;19.17;17.17;;;;;20.00;101104.00;;;;2088126;28;20213;-60
2022/01/16 05:25:17;;;;;;;17.37;15.67;;;;;20.00;101111.00;;;;2088399;28;20231;-60
2022/01/16 05:26:18;;;;;;;18.08;16.40;;;;;20.10;101116.00;;;;2087814;28;20205;-60
2022/01/16 05:27:19;;;;;;;18.55;16.75;;;;;20.10;101113.00;;;;2087608;28;20244;-60
2022/01/16 05:28:19;;;;;;;19.23;17.13;;;;;20.00;101113.00;;;;2087541;28;20339;-60
2022/01/16 05:29:19;;;;;;;19.83;17.73;;;;;20.00;101127.00;;;;2088313;28;20216;-60
2022/01/16 05:30:20;;;;;;;17.80;16.07;;;;;20.00;101110.00;;;;2088207;28;20656;-60
2022/01/16 05:31:20;;;;;;;19.43;17.53;;;;;20.00;101118.00;;;;2088256;28;20255;-60
2022/01/16 05:32:21;;;;;;;18.87;16.77;;;;;20.00;101121.00;;;;2088362;28;20258;-60
2022/01/16 05:33:21;;;;;;;17.40;15.63;;;;;20.00;101129.00;;;;2088358;28;20310;-60
2022/01/16 05:34:25;;;;;;;20.17;18.07;;;;;20.00;101133.00;;;;2088244;28;20229;-60
2022/01/16 05:35:26;;;;;;;19.50;17.40;;;;;20.10;101137.00;;;;2088554;28;20235;-60
2022/01/16 05:36:26;;;;;;;19.37;17.37;;;;;20.00;101134.00;;;;2088179;28;20665;-59
2022/01/16 05:37:27;;;;;;;18.73;16.80;;;;;20.00;101129.00;;;;2088098;28;20213;-60
2022/01/16 05:38:28;;;;;;;19.80;17.67;;;;;20.00;101129.00;;;;2088277;28;20325;-60
2022/01/16 05:39:28;;;;;;;19.60;17.63;;;;;20.00;101127.00;;;;2087141;28;20220;-60
2022/01/16 05:40:29;;;;;;;19.87;17.43;;;;;20.00;101124.00;;;;2083272;28;20276;-60
2022/01/16 05:41:29;;;;;;;20.57;18.17;;;;;20.00;101130.00;;;;2087771;28;20216;-60
2022/01/16 05:42:32;;;;;;;20.80;18.70;;;;;20.00;101122.00;;;;2088012;28;20205;-60
2022/01/16 05:43:32;;;;;;;20.88;18.65;;;;;20.00;101123.00;;;;2087830;28;20213;-60
2022/01/16 05:44:32;;;;;;;20.30;18.10;;;;;20.00;101124.00;;;;2087391;28;20213;-60
2022/01/16 05:45:33;;;;;;;20.60;18.50;;;;;20.00;101120.00;;;;2087720;28;20213;-60